Flight Track Log - Related Links

Times and Time Zones

All times are in EDT time to prevent confusion due to time zone crossing. See the N9022H flight status page for this flight to view local times or setup timezone preferences in your user account.

Time Position Orientation Groundspeed Altitude Reporting Facility
EDT Latitude Longitude Course Direction KTS MPH feet Rate Location/Type
Wed 11:01:25 AM 32.4422 -93.8367 259° West 85 98 800  Level Fort Worth Center
Wed 11:01:49 AM 32.4406 -93.8467 259° West 84 97 1,100 593 Climbing Fort Worth Center
Wed 11:02:56 AM 32.4372 -93.8764 262° West 77 89 1,700 609 Climbing Fort Worth Center
Wed 11:03:57 AM 32.4358 -93.9008 266° West 81 93 2,400 595 Climbing Fort Worth Center
Wed 11:04:57 AM 32.4367 -93.9281 272° West 80 92 2,900 567 Climbing Fort Worth Center
Wed 11:06:04 AM 32.4333 -93.9578 262° West 82 94 3,600 590 Climbing Fort Worth Center
Wed 11:06:59 AM 32.4339 -93.9822 272° West 87 100 4,100 574 Climbing Fort Worth Center
Wed 11:07:59 AM 32.4306 -94.0144 263° West 91 105 4,700 595 Climbing Fort Worth Center
Wed 11:09:00 AM 32.4314 -94.0464 272° West 92 106 5,300 590 Climbing Fort Worth Center
Wed 11:10:01 AM 32.4322 -94.0783 272° West 97 112 5,900 36 Climbing Fort Worth Center
Wed 11:12:00 AM 32.4282 -94.1564 265° West  Level FlightAware Approximate
Wed 11:19:00 AM 32.4168 -94.4323 270° West  Level FlightAware Approximate
Wed 11:20:00 AM 32.4168 -94.4718 270° West  Level FlightAware Approximate
Wed 11:21:00 AM 32.4169 -94.5113 270° West  Level FlightAware Approximate
Wed 11:22:00 AM 32.4169 -94.5508 270° West  Level FlightAware Approximate
Wed 11:23:00 AM 32.4168 -94.5902 270° West  Level FlightAware Approximate
Wed 11:24:00 AM 32.4168 -94.6297 270° West  Level FlightAware Approximate
Wed 11:25:00 AM 32.4168 -94.6692 270° West  Level FlightAware Approximate
Wed 11:26:00 AM 32.4167 -94.7087 270° West  Level FlightAware Approximate
Wed 11:27:00 AM 32.4167 -94.7482 270° West  Level FlightAware Approximate
Wed 11:28:00 AM 32.4094 -94.7867 257° West  Level FlightAware Approximate
Wed 11:28:23 AM 32.3894 -94.9311 257° West 144 166 6,000  Level Fort Worth Center
Wed 11:29:00 AM 32.4017 -94.8251 257° West  Level FlightAware Approximate
Wed 11:29:23 AM 32.3797 -94.9756 255° West 144 166 6,000  Level Fort Worth Center
Wed 11:30:00 AM 32.3940 -94.8635 257° West  Level FlightAware Approximate
Wed 11:30:23 AM 32.3767 -95.0297 266° West 155 178 6,000  Level Fort Worth Center
Wed 11:31:00 AM 32.3863 -94.9020 257° West  Level FlightAware Approximate
Wed 11:31:24 AM 32.3692 -95.0742 259° West 155 178 6,000  Level Fort Worth Center
Wed 11:32:00 AM 32.3786 -94.9404 257° West  Level FlightAware Approximate
Wed 11:32:23 AM 32.3617 -95.1211 259° West 150 173 6,000  Level Fort Worth Center
Wed 11:33:23 AM 32.3542 -95.1681 259° West 145 167 6,000  Level Fort Worth Center
Wed 11:34:23 AM 32.3467 -95.2150 259° West 145 167 6,000  Level Fort Worth Center
Wed 11:35:23 AM 32.3389 -95.2594 258° West 145 167 6,000  Level Fort Worth Center
Wed 11:36:23 AM 32.3314 -95.3064 259° West 145 167 6,000  Level Fort Worth Center
Wed 11:37:24 AM 32.3239 -95.3533 259° West 145 167 6,000  Level Fort Worth Center
Wed 11:38:23 AM 32.3206 -95.3975 265° West 145 167 6,000  Level Fort Worth Center
Wed 11:39:23 AM 32.3169 -95.4442 265° West 145 167 6,000  Level Fort Worth Center
Wed 11:40:23 AM 32.3281 -95.4908 286° West 140 161 6,000  Level Fort Worth Center
Wed 11:41:23 AM 32.3414 -95.5372 289° West 140 161 6,000  Level Fort Worth Center
Wed 11:42:23 AM 32.3544 -95.5836 288° West 145 167 6,000  Level Fort Worth Center
Wed 11:43:23 AM 32.3697 -95.6278 292° West 145 167 6,000  Level Fort Worth Center
Wed 11:44:23 AM 32.3789 -95.6742 283° West 145 167 6,000  Level Fort Worth Center
Wed 11:45:23 AM 32.3919 -95.7231 288° West 151 174 6,000  Level Fort Worth Center
Wed 11:46:23 AM 32.4053 -95.7697 289° West 151 174 6,000  Level Fort Worth Center
Wed 11:47:23 AM 32.4183 -95.8161 288° West 151 174 6,000  Level Fort Worth Center
Wed 11:48:23 AM 32.4314 -95.8628 288° West 151 174 6,000  Level Fort Worth Center
Wed 11:49:24 AM 32.4444 -95.9069 289° West 146 168 6,000  Level Fort Worth Center
Wed 11:50:23 AM 32.4597 -95.9583 289° West 146 168 6,000  Level Fort Worth Center
Wed 11:51:23 AM 32.4728 -96.0050 288° West 146 168 6,000  Level Fort Worth Center
Wed 11:52:23 AM 32.4858 -96.0514 288° West 146 168 6,000  Level Fort Worth Center
Wed 11:53:23 AM 32.4989 -96.0956 289° West 146 168 6,000  Level Fort Worth Center
Wed 11:54:23 AM 32.5117 -96.1422 288° West 146 168 6,000  Level Fort Worth Center
Wed 11:55:23 AM 32.5247 -96.1914 287° West 146 168 6,000  Level Fort Worth Center
Wed 11:56:23 AM 32.5356 -96.2356 286° West 146 168 6,000  Level Fort Worth Center
Wed 11:57:23 AM 32.5486 -96.2822 288° West 146 168 6,000  Level Fort Worth Center
Wed 11:58:24 AM 32.5614 -96.3289 288° West 146 168 6,000 -150 Level Fort Worth Center
Wed 11:59:23 AM 32.5847 -96.3706 304° West 151 174 5,700 -353 Descending Fort Worth Center
Wed 12:00:23 PM 32.6081 -96.4122 304° West 151 174 5,300 -347 Descending Fort Worth Center
Wed 12:01:24 PM 32.6272 -96.4464 304° West 151 174 5,000 -150 Descending Fort Worth Center
Wed 12:02:23 PM 32.6525 -96.4906 304° West 151 174 5,000  Level Fort Worth Center
Wed 12:03:23 PM 32.6800 -96.5225 316° Northwest 146 168 5,000 -150 Level Fort Worth Center
Wed 12:04:23 PM 32.7178 -96.5492 329° Northwest 140 161 4,700 -350 Descending Fort Worth Center
Wed 12:05:23 PM 32.7492 -96.5711 330° Northwest 146 168 4,300 -350 Descending Fort Worth Center
Wed 12:06:23 PM 32.7869 -96.6003 327° Northwest 146 168 4,000 -347 Descending Fort Worth Center
Wed 12:07:24 PM 32.8206 -96.6200 334° Northwest 146 168 3,600 -411 Descending Fort Worth Center
Wed 12:08:49 PM 32.8833 -96.6500 338° Northwest 143 165 3,000 -248 Descending Dallas / Fort Worth TRACON
Wed 12:09:49 PM 32.9167 -96.6833 320° Northwest 134 154 3,000  Level Dallas / Fort Worth TRACON
Wed 12:10:55 PM 32.9500 -96.7000 337° Northwest 141 162 3,000  Level Dallas / Fort Worth TRACON
Wed 12:11:49 PM 32.9833 -96.7167 337° Northwest 140 161 3,000 -172 Level Dallas / Fort Worth TRACON
Wed 12:13:00 PM 32.9759 -96.7691 260° West  Level FlightAware Approximate
Wed 12:13:49 PM 33.0167 -96.7667 260° West 114 131 2,500  Level Dallas / Fort Worth TRACON
Wed 12:15:00 PM 32.9869 -96.8063 228° Southwest  Level FlightAware Approximate
Wed 12:15:43 PM 33.0000 -96.8333 228° Southwest 103 119 1,300  Level Dallas / Fort Worth TRACON
Wed 12:17:00 PM 32.9686 -96.8364 180° South  Level Estimated
Wed 12:24:00 PM 32.9667 -96.8333 308° West  Level FlightAware Approximate
Wed 12:25:00 PM 32.9686 -96.8364 308° West  Level Estimated
Wed 12:26:00 PM 32.9667 -96.8333 308° West  Level FlightAware Approximate

Login

Don't have an account? Register now (free) for customized features, flight alerts, and more!